Time;durP1;ratioP1;P1;durP2;ratioP2;P2;SDS_P1;SDS_P2;PMS_P1;PMS_P2;Temp;Humidity;BMP_temperature;BMP_pressure;BME280_temperature;BME280_humidity;BME280_pressure;Samples;Min_cycle;Max_cycle;Signal;HPM_P1;HPM_P2
2022/01/21 00:01:04;;;;;;;52.30;22.17;;;;;;;6.64;41.88;94786.50;5036064;28;20028;-79
2022/01/21 00:03:36;;;;;;;33.25;15.65;;;;;;;6.71;41.38;94786.50;5052529;28;20058;-79
2022/01/21 00:06:02;;;;;;;34.03;14.83;;;;;;;6.65;41.36;94782.16;5053847;28;20131;-79
2022/01/21 00:08:30;;;;;;;18.75;7.35;;;;;;;6.58;40.34;94780.41;5019142;28;20908;-79
2022/01/21 00:10:58;;;;;;;18.23;5.88;;;;;;;6.67;39.64;94790.47;5052255;28;20041;-79
2022/01/21 00:13:33;;;;;;;14.32;5.30;;;;;;;6.68;39.88;94797.25;5051721;28;20067;-78
2022/01/21 00:16:06;;;;;;;12.65;4.70;;;;;;;6.70;39.68;94795.25;5052777;28;20126;-78
2022/01/21 00:18:33;;;;;;;24.10;8.40;;;;;;;6.71;40.44;94807.16;5060429;28;20599;-79
2022/01/21 00:31:54;;;;;;;9.88;4.60;;;;;;;6.89;42.20;94820.19;5037189;28;20036;-78
2022/01/21 00:34:20;;;;;;;13.57;5.40;;;;;;;6.85;43.01;94829.34;5034170;28;20064;-78
2022/01/21 00:36:45;;;;;;;9.63;5.07;;;;;;;6.89;43.16;94840.84;5051683;28;20036;-78
2022/01/21 00:39:11;;;;;;;12.25;4.75;;;;;;;6.82;43.81;94840.88;5051327;28;20029;-79
2022/01/21 00:41:43;;;;;;;9.68;3.97;;;;;;;6.80;43.56;94839.50;5034749;28;20094;-78
2022/01/21 00:44:08;;;;;;;16.25;4.35;;;;;;;6.73;44.53;94846.50;5051677;28;20025;-79
2022/01/21 00:46:34;;;;;;;13.80;4.18;;;;;;;6.70;46.37;94852.09;5039171;28;20059;-79
2022/01/21 00:49:01;;;;;;;10.38;4.45;;;;;;;6.63;47.43;94857.28;5060509;28;20041;-79
2022/01/21 00:51:27;;;;;;;20.48;6.72;;;;;;;6.49;48.71;94859.13;5054219;28;20043;-79
2022/01/21 00:53:53;;;;;;;12.70;4.68;;;;;;;6.51;52.37;94875.22;5035965;28;20388;-79
2022/01/21 00:56:18;;;;;;;9.00;4.10;;;;;;;6.41;53.94;94874.88;5053558;28;20036;-79
2022/01/21 00:58:44;;;;;;;7.85;4.03;;;;;;;6.40;54.82;94878.44;5052176;28;20029;-79
2022/01/21 01:01:09;;;;;;;14.05;4.10;;;;;;;6.37;55.07;94873.69;5035386;28;20508;-78
2022/01/21 01:03:34;;;;;;;7.53;3.45;;;;;;;6.27;55.23;94870.72;5051458;28;20516;-79
2022/01/21 01:06:00;;;;;;;12.23;4.75;;;;;;;6.05;56.90;94874.56;5051524;28;20033;-79
2022/01/21 01:08:25;;;;;;;8.13;3.53;;;;;;;5.92;57.80;94877.97;5051487;28;20032;-79
2022/01/21 01:11:17;;;;;;;7.85;4.38;;;;;;;5.75;58.43;94874.97;5052850;28;20037;-79
2022/01/21 01:21:45;;;;;;;9.45;4.68;;;;;;;5.47;59.30;94848.59;5052843;28;20056;-78
2022/01/21 01:29:22;;;;;;;10.68;4.20;;;;;;;5.36;59.60;94860.28;5052532;28;20079;-79
2022/01/21 01:31:48;;;;;;;4.75;3.67;;;;;;;5.32;59.25;94859.91;5035033;28;20044;-79
2022/01/21 01:34:16;;;;;;;7.55;3.88;;;;;;;5.21;59.68;94852.78;5051417;28;20040;-78
2022/01/21 01:36:44;;;;;;;8.38;4.05;;;;;;;5.07;59.31;94846.00;5051901;28;20112;-79
2022/01/21 01:39:32;;;;;;;8.45;4.00;;;;;;;5.03;60.13;94839.63;5033966;28;20043;-79
2022/01/21 01:50:29;;;;;;;4.35;4.05;;;;;;;4.65;63.32;94831.66;5065391;28;20048;-79
2022/01/21 01:52:54;;;;;;;4.40;3.95;;;;;;;4.65;64.42;94840.16;5049284;28;20515;-78
2022/01/21 01:55:20;;;;;;;4.60;4.18;;;;;;;4.69;64.70;94836.22;5015984;28;20025;-78
2022/01/21 01:57:45;;;;;;;5.30;4.45;;;;;;;4.72;64.49;94829.91;5050392;28;20086;-78
2022/01/21 02:00:11;;;;;;;11.15;5.15;;;;;;;4.63;65.82;94838.78;5048989;28;20122;-77
2022/01/21 02:02:36;;;;;;;5.55;4.22;;;;;;;4.60;66.14;94841.75;5050752;28;20037;-79
2022/01/21 02:05:02;;;;;;;6.38;4.65;;;;;;;4.52;67.31;94837.53;5034531;28;20037;-79
2022/01/21 02:07:27;;;;;;;8.13;5.30;;;;;;;4.42;67.11;94842.28;5036348;28;20524;-78
2022/01/21 02:09:53;;;;;;;8.43;5.32;;;;;;;4.29;68.84;94844.81;5054209;28;20029;-79
2022/01/21 02:12:18;;;;;;;8.15;5.43;;;;;;;4.13;69.02;94838.19;5037428;28;20059;-79
2022/01/21 02:14:49;;;;;;;6.72;4.85;;;;;;;3.98;69.64;94837.53;5055678;28;20028;-79
2022/01/21 02:22:33;;;;;;;5.68;5.18;;;;;;;3.74;71.71;94844.72;5053065;28;20901;-79
2022/01/21 02:25:11;;;;;;;7.32;5.63;;;;;;;3.65;71.82;94845.06;5055776;28;20063;-79
2022/01/21 02:27:36;;;;;;;7.03;5.63;;;;;;;3.54;72.52;94847.16;5065394;28;20045;-79
2022/01/21 02:30:05;;;;;;;8.95;5.97;;;;;;;3.50;72.07;94848.50;5021557;28;20036;-79
2022/01/21 02:32:30;;;;;;;14.60;6.35;;;;;;;3.28;72.93;94845.19;5054776;28;20082;-78
2022/01/21 02:34:56;;;;;;;6.15;5.55;;;;;;;3.22;73.93;94857.97;5037080;28;20258;-78
2022/01/21 02:37:25;;;;;;;7.97;6.22;;;;;;;3.12;75.07;94860.06;5037314;28;20044;-79
2022/01/21 02:39:56;;;;;;;7.85;6.43;;;;;;;3.07;75.51;94867.50;5038758;28;20049;-78
2022/01/21 02:42:21;;;;;;;10.68;5.43;;;;;;;3.03;75.40;94871.44;5054006;28;20041;-79
2022/01/21 02:44:47;;;;;;;10.43;7.13;;;;;;;2.96;75.54;94872.19;5053633;28;20033;-79
2022/01/21 02:47:15;;;;;;;9.82;7.57;;;;;;;2.84;75.29;94865.94;5054896;28;20028;-79
2022/01/21 02:49:40;;;;;;;7.72;6.07;;;;;;;2.83;75.96;94876.38;5597704;22;20046;-79
2022/01/21 02:52:07;;;;;;;9.20;7.35;;;;;;;2.74;76.45;94875.69;5105602;28;20032;-78
2022/01/21 02:54:35;;;;;;;15.45;7.25;;;;;;;2.76;76.30;94878.88;5090389;28;20095;-79
2022/01/21 02:57:06;;;;;;;7.88;7.07;;;;;;;2.77;76.49;94883.06;5067443;28;20059;-79
2022/01/21 02:59:31;;;;;;;9.25;7.13;;;;;;;2.77;76.58;94883.06;5051040;28;20078;-79
2022/01/21 03:01:57;;;;;;;8.35;7.45;;;;;;;2.67;76.61;94878.19;5050812;28;20037;-79
2022/01/21 03:04:32;;;;;;;11.15;8.35;;;;;;;2.78;77.31;94879.50;5068419;28;20036;-78
2022/01/21 03:06:57;;;;;;;12.48;8.30;;;;;;;2.93;77.59;94880.25;5037308;28;20029;-79
2022/01/21 03:09:23;;;;;;;13.85;8.80;;;;;;;3.08;77.00;94882.75;5049003;28;20036;-79
2022/01/21 03:11:48;;;;;;;16.75;8.73;;;;;;;3.22;77.33;94881.88;5067819;28;20042;-79
2022/01/21 03:14:14;;;;;;;8.77;7.63;;;;;;;3.31;75.72;94896.22;5050545;28;20504;-78
2022/01/21 03:16:42;;;;;;;9.02;7.10;;;;;;;3.45;76.20;94891.97;5049080;28;20041;-80
2022/01/21 03:19:08;;;;;;;11.32;7.78;;;;;;;3.59;75.46;94885.97;5051925;28;20103;-79
2022/01/21 03:21:33;;;;;;;10.27;7.38;;;;;;;3.66;75.71;94904.00;5067623;28;20119;-79
2022/01/21 03:23:59;;;;;;;10.38;7.35;;;;;;;3.75;74.41;94892.59;5086251;28;20025;-79
2022/01/21 03:26:25;;;;;;;6.95;6.03;;;;;;;3.89;73.41;94907.13;5086325;28;20035;-79
2022/01/21 03:28:52;;;;;;;7.93;6.43;;;;;;;3.86;72.79;94899.00;5051257;28;20024;-79
2022/01/21 03:31:18;;;;;;;6.88;5.07;;;;;;;3.94;72.93;94909.16;5049963;28;20498;-79
2022/01/21 03:33:44;;;;;;;4.53;3.97;;;;;;;3.92;71.40;94914.50;5049713;28;20033;-79
2022/01/21 03:36:10;;;;;;;2.67;2.47;;;;;;;3.65;70.64;94911.91;5049589;28;20035;-78
2022/01/21 03:38:35;;;;;;;2.85;2.58;;;;;;;3.65;71.44;94911.91;5046759;28;20478;-77
2022/01/21 03:41:01;;;;;;;3.42;2.80;;;;;;;3.65;72.87;94912.69;5063524;28;20032;-78
2022/01/21 03:43:28;;;;;;;3.10;2.55;;;;;;;3.73;72.54;94924.63;5048485;28;20033;-80
2022/01/21 03:45:54;;;;;;;3.95;2.47;;;;;;;3.83;71.17;94927.66;5066114;28;20024;-80
2022/01/21 03:48:20;;;;;;;2.47;2.28;;;;;;;3.92;71.65;94924.78;5064240;28;20028;-79
2022/01/21 03:50:48;;;;;;;4.40;3.38;;;;;;;4.02;70.76;94921.06;5049667;28;20043;-79
2022/01/21 03:53:13;;;;;;;2.63;2.42;;;;;;;3.98;71.14;94923.22;5066029;28;20029;-79
2022/01/21 03:55:39;;;;;;;2.88;2.55;;;;;;;3.98;69.50;94922.44;5050298;28;20039;-79
2022/01/21 03:58:06;;;;;;;2.17;2.08;;;;;;;3.90;70.86;94926.75;5064833;28;20039;-79
2022/01/21 04:00:37;;;;;;;2.10;2.00;;;;;;;3.94;70.93;94927.16;5081589;28;20024;-79
2022/01/21 04:03:03;;;;;;;2.20;2.10;;;;;;;4.03;70.06;94933.72;5049899;28;20051;-79
2022/01/21 04:05:29;;;;;;;2.20;2.10;;;;;;;4.14;69.56;94932.44;5066325;28;20333;-79
2022/01/21 04:07:54;;;;;;;2.10;2.00;;;;;;;4.24;69.00;94932.09;5065658;28;20460;-80
2022/01/21 04:10:20;;;;;;;2.35;2.05;;;;;;;4.17;69.88;94937.19;5030625;28;20020;-81
2022/01/21 04:12:45;;;;;;;2.05;1.95;;;;;;;4.21;69.36;94939.19;5064567;28;20036;-81
2022/01/21 04:15:11;;;;;;;2.13;2.03;;;;;;;4.29;70.06;94945.97;5049629;28;20080;-79
2022/01/21 04:17:36;;;;;;;4.13;2.47;;;;;;;4.29;69.81;94945.19;5065348;28;20047;-78
2022/01/21 04:20:03;;;;;;;2.33;1.90;;;;;;;4.33;69.74;94952.34;5064508;28;20035;-79
2022/01/21 04:22:29;;;;;;;2.83;2.70;;;;;;;4.42;69.60;94953.00;5046800;28;20040;-78
2022/01/21 04:24:55;;;;;;;3.85;3.45;;;;;;;4.38;69.12;94954.34;5063327;28;20395;-79
2022/01/21 04:27:20;;;;;;;5.50;3.05;;;;;;;4.33;69.56;94947.19;5064853;28;20032;-80
2022/01/21 04:29:46;;;;;;;10.10;4.40;;;;;;;4.43;69.16;94963.09;5064700;28;20024;-79
2022/01/21 04:32:15;;;;;;;3.95;3.65;;;;;;;4.49;68.50;94962.31;5034217;28;20029;-80
2022/01/21 04:34:40;;;;;;;4.28;3.50;;;;;;;4.44;69.04;94969.03;5064864;28;20035;-81
2022/01/21 04:37:11;;;;;;;3.17;2.70;;;;;;;4.39;68.65;94977.34;5064544;28;20513;-79
2022/01/21 04:39:45;;;;;;;2.47;2.38;;;;;;;4.39;69.20;94979.09;5033244;28;20438;-79
2022/01/21 04:47:29;;;;;;;2.80;2.60;;;;;;;4.29;69.52;94986.38;5083883;28;20077;-79
2022/01/21 04:49:55;;;;;;;2.63;2.53;;;;;;;4.39;68.82;94987.63;5046759;28;20033;-79
2022/01/21 04:52:23;;;;;;;2.90;2.70;;;;;;;4.37;68.46;94993.94;5082228;28;20530;-80
2022/01/21 04:54:49;;;;;;;2.45;2.35;;;;;;;4.32;68.69;94994.50;5065237;28;20040;-79
2022/01/21 04:57:14;;;;;;;2.55;2.35;;;;;;;4.31;67.92;95005.78;5065692;28;20059;-80
2022/01/21 04:59:40;;;;;;;2.10;2.00;;;;;;;4.20;67.69;95014.81;5085460;28;20028;-80
2022/01/21 05:02:05;;;;;;;2.83;2.63;;;;;;;3.71;68.65;95016.59;5048835;28;20044;-81
2022/01/21 05:04:31;;;;;;;2.20;2.10;;;;;;;3.73;69.17;95010.28;5065659;28;20032;-79
2022/01/21 05:06:56;;;;;;;2.17;2.08;;;;;;;3.77;68.14;95018.44;5085386;28;20032;-80
2022/01/21 05:09:29;;;;;;;2.25;2.15;;;;;;;3.67;68.86;95010.22;5065090;28;20035;-79
2022/01/21 05:11:55;;;;;;;2.20;2.10;;;;;;;3.70;69.03;95009.84;5050750;28;20028;-80
2022/01/21 05:14:24;;;;;;;3.97;2.53;;;;;;;3.73;68.66;95014.63;5064383;28;20111;-79
2022/01/21 05:16:52;;;;;;;2.70;2.50;;;;;;;3.78;69.26;95017.47;5064645;28;20078;-78
2022/01/21 05:19:19;;;;;;;2.97;2.78;;;;;;;3.59;70.09;95013.72;5064767;28;20044;-78
2022/01/21 05:21:48;;;;;;;2.58;2.47;;;;;;;3.66;68.69;95022.28;5067109;28;20135;-81
2022/01/21 05:24:16;;;;;;;3.00;2.70;;;;;;;3.78;69.28;95036.25;5036055;28;20032;-78
2022/01/21 05:26:42;;;;;;;3.75;2.97;;;;;;;3.71;69.16;95037.16;5047525;28;20036;-81
2022/01/21 05:29:10;;;;;;;9.27;3.08;;;;;;;3.77;68.81;95033.88;5085861;28;20028;-78
2022/01/21 05:31:35;;;;;;;2.83;2.63;;;;;;;3.58;68.66;95038.66;5044960;28;20085;-77
2022/01/21 05:34:01;;;;;;;3.95;3.28;;;;;;;3.30;69.55;95048.03;5026814;28;20040;-76
2022/01/21 05:36:27;;;;;;;3.75;3.38;;;;;;;3.23;70.25;95053.06;5059891;28;20024;-76
2022/01/21 05:38:55;;;;;;;4.53;2.10;;;;;;;3.17;67.87;95058.16;5043332;28;20043;-76
2022/01/21 05:41:24;;;;;;;2.65;2.40;;;;;;;2.47;69.65;95071.44;5061821;28;20036;-75
2022/01/21 05:43:57;;;;;;;3.22;2.58;;;;;;;2.14;71.59;95079.44;5046068;28;20040;-75
2022/01/21 05:46:28;;;;;;;3.72;2.30;;;;;;;2.19;73.23;95084.03;5063711;28;20036;-76
2022/01/21 05:48:54;;;;;;;2.60;2.40;;;;;;;2.15;73.17;95083.59;5049215;28;20503;-76
2022/01/21 05:51:20;;;;;;;2.85;2.65;;;;;;;2.19;72.05;95089.16;5046510;28;20032;-76
2022/01/21 05:53:45;;;;;;;10.50;2.83;;;;;;;2.08;72.00;95088.59;5046413;28;20036;-75
2022/01/21 05:56:12;;;;;;;10.18;3.10;;;;;;;2.10;72.71;95099.47;5081715;28;20028;-75
2022/01/21 05:58:40;;;;;;;3.03;2.63;;;;;;;1.93;71.56;95099.78;5046946;28;20182;-75
2022/01/21 06:01:05;;;;;;;8.25;3.13;;;;;;;1.69;73.27;95106.69;5047276;28;20033;-76
2022/01/21 06:03:31;;;;;;;7.70;3.97;;;;;;;1.74;73.73;95112.09;5030155;28;20036;-75
2022/01/21 06:05:56;;;;;;;7.93;3.60;;;;;;;1.78;72.83;95115.91;5045839;28;20032;-76
2022/01/21 06:08:22;;;;;;;6.15;3.55;;;;;;;1.38;73.61;95123.81;5046473;28;20079;-76
2022/01/21 06:10:47;;;;;;;4.68;3.90;;;;;;;1.28;75.69;95125.78;5063508;28;20488;-76
2022/01/21 06:13:16;;;;;;;4.55;3.50;;;;;;;1.37;74.86;95137.59;5062839;28;20024;-76
2022/01/21 06:15:41;;;;;;;5.13;3.65;;;;;;;1.54;75.24;95136.56;5047686;28;20032;-76
2022/01/21 06:18:09;;;;;;;6.55;4.25;;;;;;;1.67;74.24;95147.06;5063323;28;20111;-75
2022/01/21 06:20:34;;;;;;;10.82;4.85;;;;;;;1.70;74.74;95141.59;5062241;28;20028;-76
2022/01/21 06:23:00;;;;;;;4.28;3.85;;;;;;;1.94;73.14;95157.78;5080738;28;20056;-75
2022/01/21 06:25:25;;;;;;;4.80;3.25;;;;;;;2.06;72.30;95157.22;5080596;28;20043;-75
2022/01/21 06:27:51;;;;;;;4.78;3.28;;;;;;;2.14;71.42;95143.56;5046245;28;20491;-75
2022/01/21 06:30:16;;;;;;;5.93;4.28;;;;;;;2.21;71.36;95165.00;5046823;28;20034;-76
2022/01/21 06:32:44;;;;;;;4.13;3.47;;;;;;;2.22;70.07;95156.31;5080736;28;20081;-76
2022/01/21 06:35:10;;;;;;;4.93;3.97;;;;;;;2.26;70.84;95157.56;5081521;28;20178;-76
2022/01/21 06:37:36;;;;;;;5.43;3.50;;;;;;;2.33;68.83;95173.88;5080409;28;20028;-76
2022/01/21 06:40:01;;;;;;;9.70;3.38;;;;;;;2.41;65.12;95175.59;5079641;28;20114;-76
2022/01/21 06:42:29;;;;;;;3.88;2.92;;;;;;;2.36;66.76;95176.09;5081091;28;20028;-75
2022/01/21 06:44:54;;;;;;;6.40;3.40;;;;;;;2.33;65.77;95184.16;5062738;28;20127;-76
2022/01/21 06:47:20;;;;;;;7.47;4.15;;;;;;;2.45;67.09;95184.56;5044991;28;20566;-75
2022/01/21 06:49:46;;;;;;;5.70;4.30;;;;;;;2.57;66.26;95184.91;5062307;28;20426;-75
2022/01/21 06:52:12;;;;;;;5.45;4.25;;;;;;;2.70;65.32;95195.41;5080214;28;20438;-76
2022/01/21 06:54:37;;;;;;;5.40;4.28;;;;;;;2.85;65.46;95208.28;5080789;28;20033;-75
2022/01/21 06:57:03;;;;;;;22.08;9.05;;;;;;;2.90;65.64;95211.91;5080577;28;20419;-76
2022/01/21 06:59:29;;;;;;;272.70;88.40;;;;;;;2.96;66.87;95207.88;5062423;28;20460;-76
2022/01/21 07:01:56;;;;;;;183.73;58.35;;;;;;;3.04;62.83;95218.06;5045787;28;20089;-76
2022/01/21 07:04:22;;;;;;;155.15;50.30;;;;;;;3.10;62.97;95226.84;5045510;28;20456;-76
2022/01/21 07:06:57;;;;;;;120.93;38.67;;;;;;;3.10;63.75;95237.13;5062132;28;20055;-76
2022/01/21 07:09:23;;;;;;;88.20;29.05;;;;;;;3.12;63.29;95230.84;5047171;28;20063;-76
2022/01/21 07:11:48;;;;;;;77.03;22.58;;;;;;;3.14;63.70;95235.81;5060276;28;20341;-76
2022/01/21 07:14:14;;;;;;;39.17;15.30;;;;;;;3.17;63.45;95243.16;5077618;28;20028;-76
2022/01/21 07:16:39;;;;;;;72.95;22.92;;;;;;;3.22;63.70;95236.50;5045697;28;20046;-77
2022/01/21 07:19:05;;;;;;;99.70;34.47;;;;;;;3.24;65.32;95249.97;5080240;28;20032;-76
2022/01/21 07:21:30;;;;;;;133.80;49.30;;;;;;;3.27;64.74;95259.13;5060122;28;20119;-75
2022/01/21 07:23:55;;;;;;;158.98;53.15;;;;;;;3.23;64.35;95261.22;5078133;28;20036;-76
2022/01/21 07:26:21;;;;;;;130.30;43.50;;;;;;;3.24;64.04;95269.75;5061795;28;20028;-76
2022/01/21 07:28:46;;;;;;;99.68;37.97;;;;;;;3.20;63.82;95255.66;5062244;28;20044;-76
2022/01/21 07:31:12;;;;;;;48.90;18.58;;;;;;;3.17;63.87;95261.94;5044945;28;20025;-74
2022/01/21 07:33:38;;;;;;;54.25;22.30;;;;;;;3.07;64.14;95265.72;5045038;28;20036;-75
2022/01/21 07:36:04;;;;;;;54.70;23.90;;;;;;;2.96;63.62;95278.03;5061621;28;20029;-75
2022/01/21 07:38:32;;;;;;;42.90;16.98;;;;;;;2.92;64.44;95276.75;5071983;28;20400;-74
2022/01/21 07:41:00;;;;;;;38.55;17.83;;;;;;;2.93;65.06;95286.09;5058585;28;20288;-74
2022/01/21 07:43:26;;;;;;;30.63;16.13;;;;;;;2.92;64.80;95281.09;5079134;28;20028;-76
2022/01/21 07:45:51;;;;;;;41.83;22.60;;;;;;;2.95;63.87;95284.13;5061535;28;20035;-75
2022/01/21 07:48:17;;;;;;;45.25;21.75;;;;;;;3.01;64.84;95286.00;5061583;28;20039;-76
2022/01/21 07:53:34;;;;;;;25.90;15.55;;;;;;;3.07;64.38;95287.06;5051103;28;20079;-76
2022/01/21 07:55:59;;;;;;;26.15;15.50;;;;;;;3.06;63.97;95282.09;5061123;28;20464;-75
2022/01/21 07:58:24;;;;;;;60.55;33.20;;;;;;;3.15;64.34;95288.78;5061249;28;20048;-76
2022/01/21 08:00:50;;;;;;;63.78;34.55;;;;;;;3.23;63.04;95288.69;5079517;28;20020;-76
2022/01/21 08:03:15;;;;;;;56.00;29.58;;;;;;;3.29;62.09;95298.31;5079012;28;20036;-76
2022/01/21 08:05:43;;;;;;;51.20;30.15;;;;;;;3.33;61.99;95309.81;5060409;28;20016;-75
2022/01/21 08:08:09;;;;;;;34.08;18.50;;;;;;;3.32;62.07;95305.66;5061622;28;20060;-75
2022/01/21 08:10:34;;;;;;;30.83;15.10;;;;;;;3.37;62.57;95299.97;5061131;28;20138;-76
2022/01/21 08:13:00;;;;;;;20.83;11.15;;;;;;;3.32;61.35;95303.09;5078693;28;20032;-76
2022/01/21 08:15:26;;;;;;;24.88;14.75;;;;;;;3.32;60.83;95303.09;5078977;28;20027;-76
2022/01/21 08:17:52;;;;;;;20.30;13.88;;;;;;;3.34;60.97;95311.41;5043350;28;20546;-75
2022/01/21 08:20:17;;;;;;;20.35;12.43;;;;;;;3.30;61.72;95315.31;5078994;28;20039;-75
2022/01/21 08:22:43;;;;;;;25.17;14.23;;;;;;;3.37;61.47;95315.41;5044594;28;20048;-76
2022/01/21 08:25:08;;;;;;;38.92;18.98;;;;;;;3.39;61.64;95319.41;5061054;28;20502;-76
2022/01/21 08:27:37;;;;;;;38.92;20.65;;;;;;;3.39;61.05;95314.25;5060642;28;20514;-75
2022/01/21 08:30:04;;;;;;;36.03;21.95;;;;;;;3.30;61.36;95326.41;5045486;28;20111;-76
2022/01/21 08:32:29;;;;;;;25.05;14.40;;;;;;;3.43;60.86;95328.38;5079597;28;20032;-76
2022/01/21 08:34:55;;;;;;;17.63;10.75;;;;;;;3.46;59.82;95335.75;5078468;28;20043;-76
2022/01/21 08:37:20;;;;;;;11.50;9.02;;;;;;;3.49;60.95;95332.00;5060556;28;20500;-76
2022/01/21 08:39:45;;;;;;;11.63;7.75;;;;;;;3.51;60.05;95327.50;5043769;28;20495;-76
2022/01/21 08:42:11;;;;;;;21.77;13.25;;;;;;;3.52;59.75;95318.81;5079222;28;20035;-76
2022/01/21 08:44:39;;;;;;;17.00;9.63;;;;;;;3.58;60.65;95297.53;5060951;28;20073;-75
2022/01/21 08:47:04;;;;;;;19.35;11.88;;;;;;;3.70;60.39;95290.16;5077683;28;20039;-75
2022/01/21 08:49:30;;;;;;;17.15;10.82;;;;;;;3.80;60.45;95303.56;5043366;28;20353;-75
2022/01/21 08:51:57;;;;;;;19.30;9.38;;;;;;;3.95;58.39;95313.88;5044745;28;20044;-76
2022/01/21 08:54:23;;;;;;;30.20;14.48;;;;;;;3.91;58.24;95310.84;5027684;28;20041;-76
2022/01/21 08:56:49;;;;;;;29.05;15.25;;;;;;;3.91;57.37;95328.88;5060366;28;20078;-76
2022/01/21 08:59:16;;;;;;;48.20;22.55;;;;;;;3.97;58.21;95335.06;5059435;28;20032;-76
2022/01/21 09:01:42;;;;;;;67.57;31.98;;;;;;;3.97;58.41;95333.28;5044178;28;20040;-76
2022/01/21 09:04:08;;;;;;;58.28;27.23;;;;;;;4.00;58.31;95332.13;5078037;28;20551;-76
2022/01/21 09:06:33;;;;;;;50.03;26.92;;;;;;;3.94;58.96;95333.66;5060588;28;20055;-76
2022/01/21 09:08:59;;;;;;;46.55;26.13;;;;;;;3.96;58.75;95325.75;5060570;28;20395;-76
2022/01/21 09:11:24;;;;;;;47.55;24.08;;;;;;;3.94;58.53;95313.06;5060060;28;20492;-76
2022/01/21 09:13:50;;;;;;;36.42;20.40;;;;;;;4.00;59.40;95299.47;5060087;28;20032;-75
2022/01/21 09:16:17;;;;;;;20.65;13.75;;;;;;;4.00;58.10;95291.75;5042080;28;20036;-76
2022/01/21 09:18:48;;;;;;;23.73;14.35;;;;;;;4.08;57.70;95299.41;5060252;28;20042;-75
2022/01/21 09:21:14;;;;;;;25.20;13.65;;;;;;;4.12;56.98;95299.84;5044107;28;20526;-75
2022/01/21 09:23:39;;;;;;;36.00;14.88;;;;;;;4.17;56.09;95293.16;5059803;28;20063;-75
2022/01/21 09:26:06;;;;;;;28.63;15.95;;;;;;;4.17;57.82;95285.44;5040162;28;20052;-76
2022/01/21 09:28:31;;;;;;;49.60;23.42;;;;;;;4.30;57.00;95279.66;5039694;28;20101;-76
2022/01/21 09:30:57;;;;;;;43.72;26.25;;;;;;;4.37;57.35;95267.63;5030996;28;20485;-76
2022/01/21 09:33:29;;;;;;;53.15;26.15;;;;;;;4.52;56.25;95262.44;5023141;28;20546;-75
2022/01/21 09:35:55;;;;;;;;;;;;;;;4.49;56.65;95265.38;5041849;28;20085;-76
2022/01/21 09:38:24;;;;;;;50.50;23.02;;;;;;;4.56;56.27;95266.25;5058097;28;19921;-76
2022/01/21 09:40:50;;;;;;;53.35;26.13;;;;;;;4.75;55.32;95268.22;5056889;28;20037;-76
2022/01/21 09:43:18;;;;;;;36.28;16.95;;;;;;;4.72;54.54;95275.53;5039651;28;20033;-76
2022/01/21 09:45:51;;;;;;;55.22;23.45;;;;;;;4.82;54.73;95270.84;5040297;28;20131;-76
2022/01/21 09:48:22;;;;;;;25.33;14.20;;;;;;;4.80;54.44;95267.66;5025105;28;20044;-78
2022/01/21 09:50:49;;;;;;;22.75;11.80;;;;;;;4.92;52.11;95267.97;5041562;28;20080;-77
2022/01/21 09:53:14;;;;;;;27.35;16.17;;;;;;;5.04;52.71;95258.75;5023235;28;20090;-77
2022/01/21 09:55:40;;;;;;;16.83;10.23;;;;;;;5.14;52.17;95256.66;5023757;28;20063;-79
2022/01/21 09:58:07;;;;;;;23.58;9.65;;;;;;;5.19;51.97;95258.66;5026132;28;20028;-76
2022/01/21 10:00:33;;;;;;;18.23;9.52;;;;;;;5.31;52.97;95252.81;5021320;28;20099;-76
2022/01/21 10:03:01;;;;;;;15.55;8.32;;;;;;;5.46;52.25;95252.72;5056778;28;20029;-76
2022/01/21 10:05:26;;;;;;;25.33;9.75;;;;;;;5.62;52.01;95251.63;5040017;28;20028;-76
2022/01/21 10:07:51;;;;;;;22.08;13.18;;;;;;;5.75;51.19;95262.00;5023488;28;20556;-77
2022/01/21 10:10:17;;;;;;;22.73;10.82;;;;;;;5.78;50.55;95243.56;5040033;28;20092;-77
2022/01/21 10:12:46;;;;;;;18.58;8.65;;;;;;;5.77;50.13;95244.53;5040543;28;20421;-76
2022/01/21 10:15:12;;;;;;;16.75;9.98;;;;;;;5.80;48.69;95236.41;5038899;28;20041;-81
2022/01/21 10:17:37;;;;;;;40.60;16.23;;;;;;;5.88;49.03;95236.28;5022830;28;20050;-76
2022/01/21 10:20:16;;;;;;;40.08;21.85;;;;;;;5.94;49.82;95234.72;5022801;28;20147;-76
2022/01/21 10:23:04;;;;;;;51.08;23.50;;;;;;;5.88;50.65;95236.28;5054598;28;20036;-75
2022/01/21 10:25:30;;;;;;;36.70;16.60;;;;;;;5.86;50.39;95224.56;5057159;28;20028;-76
2022/01/21 10:28:08;;;;;;;45.85;22.27;;;;;;;5.80;49.46;95230.47;5040827;28;20028;-76
2022/01/21 10:30:34;;;;;;;52.13;26.55;;;;;;;5.75;49.08;95225.88;5043304;28;20035;-76
2022/01/21 10:32:59;;;;;;;42.25;23.63;;;;;;;5.75;49.09;95220.72;5025837;28;20032;-76
2022/01/21 10:35:26;;;;;;;27.17;15.15;;;;;;;5.79;48.36;95221.94;5042027;28;20032;-76
2022/01/21 10:37:55;;;;;;;33.88;18.35;;;;;;;5.79;49.33;95223.72;5060441;28;20056;-76
2022/01/21 10:40:21;;;;;;;55.45;23.23;;;;;;;5.97;48.27;95209.31;5027039;28;20035;-76
2022/01/21 10:42:47;;;;;;;40.45;17.92;;;;;;;6.14;47.95;95214.16;5026659;28;20032;-76
2022/01/21 10:45:13;;;;;;;37.15;16.48;;;;;;;6.13;48.01;95209.97;5024331;28;20418;-76
2022/01/21 10:47:48;;;;;;;49.83;20.65;;;;;;;6.25;47.37;95205.84;5042622;28;20079;-76
2022/01/21 10:50:16;;;;;;;48.72;20.05;;;;;;;6.26;46.88;95202.25;5042763;28;20041;-76
2022/01/21 10:52:46;;;;;;;37.97;17.98;;;;;;;6.28;47.33;95193.31;5043078;28;20024;-76
2022/01/21 10:55:34;;;;;;;23.85;12.57;;;;;;;6.12;45.73;95195.47;5060205;28;20032;-76
2022/01/21 10:58:11;;;;;;;28.50;15.27;;;;;;;6.13;45.92;95202.22;5042634;28;20066;-76
2022/01/21 11:00:37;;;;;;;52.10;26.65;;;;;;;6.07;47.51;95203.00;5042951;28;20040;-76
2022/01/21 11:03:13;;;;;;;71.47;29.23;;;;;;;6.06;47.48;95198.84;5041946;28;20058;-76
2022/01/21 11:05:45;;;;;;;34.33;17.40;;;;;;;6.09;47.58;95196.66;5059602;28;20048;-76
2022/01/21 11:08:11;;;;;;;44.08;22.90;;;;;;;6.13;47.11;95191.91;5059852;28;20155;-76
2022/01/21 11:10:38;;;;;;;37.50;18.08;;;;;;;6.18;48.07;95198.09;5026411;28;20075;-76
2022/01/21 11:13:12;;;;;;;40.13;21.42;;;;;;;6.24;46.73;95188.75;5025559;28;20471;-76
2022/01/21 11:15:38;;;;;;;53.35;27.30;;;;;;;6.33;47.65;95188.38;5057109;28;20029;-76
2022/01/21 11:18:05;;;;;;;21.20;12.23;;;;;;;6.17;47.12;95183.56;5041766;28;20399;-77
2022/01/21 11:20:40;;;;;;;11.27;7.22;;;;;;;6.07;47.76;95174.63;5026122;28;20028;-77
2022/01/21 11:23:06;;;;;;;25.15;12.75;;;;;;;6.10;46.99;95184.53;5026066;28;20037;-76
2022/01/21 11:25:44;;;;;;;30.40;14.32;;;;;;;5.88;47.66;95179.50;5025703;28;20051;-76
2022/01/21 11:28:13;;;;;;;36.72;17.80;;;;;;;6.00;47.81;95177.97;5041670;28;20029;-76
2022/01/21 11:30:38;;;;;;;35.35;16.65;;;;;;;6.08;47.36;95178.78;5059256;28;20207;-76
2022/01/21 11:33:06;;;;;;;33.05;19.25;;;;;;;6.23;46.35;95166.50;5041204;28;20444;-76
2022/01/21 11:35:32;;;;;;;34.97;16.30;;;;;;;6.17;45.41;95183.56;5026321;28;20033;-76
2022/01/21 11:37:57;;;;;;;39.03;18.65;;;;;;;6.12;46.56;95185.94;5041665;28;20463;-76
2022/01/21 11:40:23;;;;;;;43.58;18.75;;;;;;;6.10;46.77;95181.97;5025100;28;20029;-76
2022/01/21 11:42:52;;;;;;;43.78;19.08;;;;;;;6.09;46.54;95188.13;5025163;28;20028;-76
2022/01/21 11:48:49;;;;;;;47.92;19.65;;;;;;;5.95;47.28;95185.50;5042797;28;20043;-77
2022/01/21 11:50:44;;;;;;;50.22;24.17;;;;;;;6.01;47.10;95197.63;4982503;28;20050;-76
2022/01/21 11:53:10;;;;;;;42.15;20.10;;;;;;;5.94;45.74;95188.28;4997207;28;20437;-76
2022/01/21 11:55:41;;;;;;;62.15;29.73;;;;;;;5.78;46.54;95194.53;4997513;28;20038;-77
2022/01/21 11:58:16;;;;;;;69.00;33.17;;;;;;;5.66;46.82;95188.31;4966118;28;20061;-76
2022/01/21 12:00:42;;;;;;;42.95;20.20;;;;;;;5.49;49.33;95179.31;4980492;28;20030;-76
2022/01/21 12:03:08;;;;;;;63.80;27.02;;;;;;;5.37;47.82;95181.66;4995356;28;20219;-77
2022/01/21 12:05:34;;;;;;;36.75;15.73;;;;;;;5.10;48.45;95185.84;4965066;28;20045;-76
2022/01/21 12:08:04;;;;;;;53.58;21.10;;;;;;;5.03;48.07;95195.28;4964564;28;20046;-76
2022/01/21 12:10:31;;;;;;;26.05;13.50;;;;;;;4.77;48.25;95191.56;4965022;28;20057;-76
2022/01/21 12:13:10;;;;;;;45.15;18.40;;;;;;;4.59;49.46;95190.41;4964618;28;20042;-76
2022/01/21 12:15:45;;;;;;;63.72;28.42;;;;;;;4.58;50.36;95181.88;4967520;28;20042;-77
2022/01/21 12:20:59;;;;;;;50.90;24.80;;;;;;;4.34;50.64;95174.53;4997707;28;20117;-76
2022/01/21 12:23:25;;;;;;;59.28;34.33;;;;;;;4.28;51.17;95172.69;4980774;28;20537;-76
2022/01/21 12:26:08;;;;;;;48.08;27.90;;;;;;;4.20;50.23;95176.97;4981054;28;20111;-76